Time;durP1;ratioP1;P1;durP2;ratioP2;P2;SDS_P1;SDS_P2;PMS_P1;PMS_P2;Temp;Humidity;BMP_temperature;BMP_pressure;BME280_temperature;BME280_humidity;BME280_pressure;Samples;Min_cycle;Max_cycle;Signal;HPM_P1;HPM_P2
2023/09/13 00:02:11;;;;;;;29.15;21.17;;;;;;;;;;10442525;28;20661;-85
2023/09/13 00:07:12;;;;;;;30.63;22.98;;;;;;;;;;10444386;28;20068;-85
2023/09/13 00:12:13;;;;;;;34.60;25.55;;;;;;;;;;10443018;28;20033;-85
2023/09/13 00:17:14;;;;;;;31.27;23.90;;;;;;;;;;10443176;28;20078;-88
2023/09/13 00:22:15;;;;;;;30.58;21.67;;;;;;;;;;10444062;28;20037;-89
2023/09/13 00:27:16;;;;;;;29.90;23.48;;;;;;;;;;10443198;28;20057;-85
2023/09/13 00:32:17;;;;;;;28.25;20.92;;;;;;;;;;10443526;28;20508;-85
2023/09/13 00:37:18;;;;;;;23.40;18.30;;;;;;;;;;10444012;28;20151;-88
2023/09/13 00:42:19;;;;;;;26.70;19.73;;;;;;;;;;10444399;28;20098;-85
2023/09/13 00:47:21;;;;;;;27.73;21.35;;;;;;;;;;10443660;28;20037;-86
2023/09/13 00:52:22;;;;;;;36.42;26.02;;;;;;;;;;10442547;28;20040;-87
2023/09/13 00:57:23;;;;;;;23.20;17.38;;;;;;;;;;10441752;28;20663;-87
2023/09/13 01:02:24;;;;;;;32.65;24.00;;;;;;;;;;10440856;28;20025;-85
2023/09/13 01:07:25;;;;;;;27.45;21.67;;;;;;;;;;10449449;28;20037;-84
2023/09/13 01:12:26;;;;;;;19.05;16.38;;;;;;;;;;10449722;28;20480;-87
2023/09/13 01:17:34;;;;;;;34.03;21.98;;;;;;;;;;10449413;28;20075;-86
2023/09/13 01:22:44;;;;;;;23.35;18.40;;;;;;;;;;10450371;28;20048;-89
2023/09/13 01:27:53;;;;;;;24.60;18.05;;;;;;;;;;10440011;28;20064;-86
2023/09/13 01:32:54;;;;;;;22.60;18.17;;;;;;;;;;10450283;28;20013;-85
2023/09/13 01:37:55;;;;;;;23.58;17.83;;;;;;;;;;10449786;28;20041;-86
2023/09/13 01:42:57;;;;;;;25.33;18.58;;;;;;;;;;10446781;28;20029;-85
2023/09/13 01:47:59;;;;;;;27.63;20.58;;;;;;;;;;10447301;28;20090;-85
2023/09/13 01:53:03;;;;;;;24.80;18.67;;;;;;;;;;10449880;28;20427;-85
2023/09/13 01:58:04;;;;;;;28.25;20.50;;;;;;;;;;10449582;28;20048;-85
2023/09/13 02:03:05;;;;;;;23.90;18.58;;;;;;;;;;10447568;28;20033;-85
2023/09/13 02:08:06;;;;;;;26.77;20.83;;;;;;;;;;10441551;28;20118;-85
2023/09/13 02:13:07;;;;;;;27.73;21.38;;;;;;;;;;10449047;28;20064;-88
2023/09/13 02:18:08;;;;;;;21.20;17.92;;;;;;;;;;10447955;28;20482;-85
2023/09/13 02:23:09;;;;;;;26.13;18.02;;;;;;;;;;10448324;28;20057;-85
2023/09/13 02:28:11;;;;;;;23.98;17.67;;;;;;;;;;10448263;28;20021;-86
2023/09/13 02:33:12;;;;;;;25.77;18.88;;;;;;;;;;10448017;28;20028;-86
2023/09/13 02:38:13;;;;;;;24.83;19.15;;;;;;;;;;10447812;28;20480;-88
2023/09/13 02:43:14;;;;;;;21.50;18.13;;;;;;;;;;10452045;28;20051;-86
2023/09/13 02:48:15;;;;;;;25.55;18.45;;;;;;;;;;10447415;28;20029;-84
2023/09/13 02:53:16;;;;;;;22.98;18.00;;;;;;;;;;10447878;28;20644;-85
2023/09/13 02:58:17;;;;;;;21.85;17.80;;;;;;;;;;10446390;28;20131;-86
2023/09/13 03:03:18;;;;;;;22.75;17.75;;;;;;;;;;10445610;28;20481;-89
2023/09/13 03:08:19;;;;;;;25.67;19.80;;;;;;;;;;10446585;28;20044;-85
2023/09/13 03:13:20;;;;;;;23.17;18.17;;;;;;;;;;10442708;28;20397;-86
2023/09/13 03:18:21;;;;;;;22.10;16.75;;;;;;;;;;10446016;28;20032;-84
2023/09/13 03:23:22;;;;;;;21.77;16.70;;;;;;;;;;10445621;28;20492;-84
2023/09/13 03:28:23;;;;;;;23.88;18.40;;;;;;;;;;10444485;28;20089;-88
2023/09/13 03:33:24;;;;;;;25.58;20.23;;;;;;;;;;10443561;28;20033;-84
2023/09/13 03:38:25;;;;;;;28.30;21.30;;;;;;;;;;10446865;28;20393;-87
2023/09/13 03:43:26;;;;;;;27.25;19.23;;;;;;;;;;10444719;28;20044;-85
2023/09/13 03:48:29;;;;;;;20.70;17.58;;;;;;;;;;10445797;28;20029;-85
2023/09/13 03:53:31;;;;;;;30.33;23.52;;;;;;;;;;10443056;28;20070;-85
2023/09/13 03:58:35;;;;;;;29.30;21.50;;;;;;;;;;10443587;28;20412;-85
2023/09/13 04:03:36;;;;;;;23.53;18.20;;;;;;;;;;10444547;28;20044;-86
2023/09/13 04:08:37;;;;;;;27.05;20.60;;;;;;;;;;10446261;28;20031;-85
2023/09/13 04:13:38;;;;;;;32.28;22.70;;;;;;;;;;10441766;28;20109;-85
2023/09/13 04:18:39;;;;;;;23.30;17.25;;;;;;;;;;10443624;28;20444;-88
2023/09/13 04:23:40;;;;;;;30.23;22.25;;;;;;;;;;10444529;28;20052;-86
2023/09/13 04:28:41;;;;;;;33.97;26.60;;;;;;;;;;10443935;28;20082;-87
2023/09/13 04:33:46;;;;;;;26.42;21.85;;;;;;;;;;10440635;28;20094;-88
2023/09/13 04:38:48;;;;;;;46.47;32.60;;;;;;;;;;10439315;28;20477;-86
2023/09/13 04:43:49;;;;;;;57.38;37.70;;;;;;;;;;10442058;28;20029;-84
2023/09/13 04:48:50;;;;;;;51.67;37.10;;;;;;;;;;10428000;28;20052;-86
2023/09/13 04:53:51;;;;;;;49.42;37.13;;;;;;;;;;10441239;28;20040;-84
2023/09/13 04:58:52;;;;;;;54.45;37.78;;;;;;;;;;10442156;28;20041;-85
2023/09/13 05:03:54;;;;;;;45.03;32.92;;;;;;;;;;10433902;28;20025;-84
2023/09/13 05:08:56;;;;;;;47.65;32.67;;;;;;;;;;10443651;28;20411;-85
2023/09/13 05:14:15;;;;;;;47.42;36.50;;;;;;;;;;10443550;28;20431;-86
2023/09/13 05:19:18;;;;;;;43.65;32.63;;;;;;;;;;10441254;28;20048;-83
2023/09/13 05:24:19;;;;;;;42.72;33.63;;;;;;;;;;10443001;28;20056;-85
2023/09/13 05:29:20;;;;;;;43.05;32.25;;;;;;;;;;10441056;28;20028;-84
2023/09/13 05:34:21;;;;;;;47.92;34.13;;;;;;;;;;10434611;28;20079;-82
2023/09/13 05:39:22;;;;;;;44.97;33.72;;;;;;;;;;10441765;28;20549;-82
2023/09/13 05:44:24;;;;;;;43.20;32.25;;;;;;;;;;10441052;28;20064;-86
2023/09/13 05:49:26;;;;;;;43.05;31.88;;;;;;;;;;10441586;28;20480;-83
2023/09/13 05:54:27;;;;;;;44.75;31.83;;;;;;;;;;10448175;28;20538;-81
2023/09/13 05:59:29;;;;;;;43.97;31.75;;;;;;;;;;10448608;28;20128;-84
2023/09/13 06:04:30;;;;;;;44.03;30.20;;;;;;;;;;10438936;28;20029;-82
2023/09/13 06:09:31;;;;;;;43.13;30.10;;;;;;;;;;10445639;28;20032;-84
2023/09/13 06:14:32;;;;;;;40.40;28.92;;;;;;;;;;10447186;28;20036;-85
2023/09/13 06:19:33;;;;;;;44.63;29.88;;;;;;;;;;10447418;28;20048;-84
2023/09/13 06:24:35;;;;;;;42.40;28.38;;;;;;;;;;10447127;28;20045;-83
2023/09/13 06:29:36;;;;;;;39.10;29.10;;;;;;;;;;10446939;28;20036;-84
2023/09/13 06:34:37;;;;;;;46.53;30.48;;;;;;;;;;10441839;28;20667;-82
2023/09/13 06:39:38;;;;;;;35.78;26.23;;;;;;;;;;10432578;28;20037;-83
2023/09/13 06:44:40;;;;;;;42.08;26.80;;;;;;;;;;10448602;28;20040;-84
2023/09/13 06:49:41;;;;;;;40.28;25.52;;;;;;;;;;10448061;28;20025;-82
2023/09/13 06:54:42;;;;;;;36.67;24.92;;;;;;;;;;10447990;28;20032;-84
2023/09/13 06:59:43;;;;;;;34.25;25.13;;;;;;;;;;10447365;28;20041;-83
2023/09/13 07:04:44;;;;;;;31.88;23.35;;;;;;;;;;10446390;28;20107;-81
2023/09/13 07:09:45;;;;;;;43.22;25.35;;;;;;;;;;10447917;28;20029;-83
2023/09/13 07:14:46;;;;;;;35.17;23.10;;;;;;;;;;10445774;28;20484;-85
2023/09/13 07:19:47;;;;;;;29.67;21.95;;;;;;;;;;10446618;28;20124;-82
2023/09/13 07:24:48;;;;;;;34.25;23.42;;;;;;;;;;10441836;28;20059;-82
2023/09/13 07:29:49;;;;;;;40.05;23.05;;;;;;;;;;10440719;28;20127;-84
2023/09/13 07:34:50;;;;;;;29.98;21.55;;;;;;;;;;10441647;28;20650;-83
2023/09/13 07:39:51;;;;;;;34.72;20.85;;;;;;;;;;10433385;28;20665;-82
2023/09/13 07:44:52;;;;;;;29.42;20.25;;;;;;;;;;10442724;28;20051;-83
2023/09/13 07:49:53;;;;;;;28.00;20.08;;;;;;;;;;10432435;28;20026;-84
2023/09/13 07:54:54;;;;;;;31.65;21.38;;;;;;;;;;10439907;28;20025;-86
2023/09/13 07:59:55;;;;;;;29.08;20.00;;;;;;;;;;10435409;28;20045;-84
2023/09/13 08:04:56;;;;;;;30.08;19.52;;;;;;;;;;10442786;28;20041;-81
2023/09/13 08:09:57;;;;;;;27.05;18.55;;;;;;;;;;10443352;28;20443;-82
2023/09/13 08:14:58;;;;;;;23.27;16.15;;;;;;;;;;10442659;28;20033;-84
2023/09/13 08:20:00;;;;;;;28.77;16.95;;;;;;;;;;10437709;28;20503;-85
2023/09/13 08:25:01;;;;;;;21.88;16.10;;;;;;;;;;10434419;28;20053;-82
2023/09/13 08:30:03;;;;;;;25.92;16.42;;;;;;;;;;10440113;28;20029;-84
2023/09/13 08:35:05;;;;;;;23.08;16.00;;;;;;;;;;10440197;28;20060;-81
2023/09/13 08:40:06;;;;;;;18.73;14.75;;;;;;;;;;10442227;28;20021;-84
2023/09/13 08:45:07;;;;;;;23.45;15.35;;;;;;;;;;10442766;28;20047;-84
2023/09/13 08:50:09;;;;;;;23.33;15.00;;;;;;;;;;10432318;28;20489;-82
2023/09/13 08:55:11;;;;;;;22.75;14.45;;;;;;;;;;10437745;28;20087;-81
2023/09/13 09:00:12;;;;;;;20.25;13.75;;;;;;;;;;10423471;28;20606;-83
2023/09/13 09:05:17;;;;;;;21.67;14.27;;;;;;;;;;10454014;28;20028;-83
2023/09/13 09:10:25;;;;;;;21.83;12.55;;;;;;;;;;10445351;28;20075;-82
2023/09/13 09:15:26;;;;;;;19.48;12.07;;;;;;;;;;10437262;28;20463;-83
2023/09/13 09:26:06;;;;;;;15.45;11.48;;;;;;;;;;10447089;28;20132;-84
2023/09/13 09:31:10;;;;;;;20.38;12.70;;;;;;;;;;10455401;28;20013;-82
2023/09/13 09:36:13;;;;;;;17.88;11.15;;;;;;;;;;10454818;28;20036;-83
2023/09/13 09:41:33;;;;;;;15.65;11.13;;;;;;;;;;10442489;28;20024;-83
2023/09/13 09:47:10;;;;;;;16.33;11.07;;;;;;;;;;10453139;28;20036;-84
2023/09/13 09:58:01;;;;;;;18.65;12.05;;;;;;;;;;10452883;28;20468;-82
2023/09/13 10:03:03;;;;;;;15.35;10.85;;;;;;;;;;10432595;28;20025;-83
2023/09/13 10:08:17;;;;;;;19.08;11.27;;;;;;;;;;10440808;28;20024;-82
2023/09/13 10:24:59;;;;;;;15.65;10.77;;;;;;;;;;10376196;28;20558;-84
2023/09/13 10:30:29;;;;;;;14.20;10.13;;;;;;;;;;10450801;28;20029;-84
2023/09/13 10:41:51;;;;;;;17.13;10.75;;;;;;;;;;10383100;28;20054;-84
2023/09/13 10:46:52;;;;;;;14.05;9.25;;;;;;;;;;10446199;28;20059;-83
2023/09/13 10:51:58;;;;;;;13.60;10.15;;;;;;;;;;10450329;28;20098;-83
2023/09/13 10:56:59;;;;;;;11.77;8.73;;;;;;;;;;10438346;28;20033;-83
2023/09/13 11:02:04;;;;;;;14.10;9.75;;;;;;;;;;10449825;28;20408;-84
2023/09/13 11:07:15;;;;;;;15.13;10.48;;;;;;;;;;10398015;28;20169;-81
2023/09/13 11:12:16;;;;;;;13.13;9.02;;;;;;;;;;10375688;28;20037;-83
2023/09/13 11:17:38;;;;;;;11.90;8.55;;;;;;;;;;10401259;28;20627;-82
2023/09/13 11:22:39;;;;;;;16.92;9.43;;;;;;;;;;10399801;28;20072;-84
2023/09/13 11:27:40;;;;;;;15.63;9.85;;;;;;;;;;10399060;28;20128;-83
2023/09/13 11:32:42;;;;;;;12.75;9.10;;;;;;;;;;10397251;28;20064;-81
2023/09/13 11:37:45;;;;;;;10.98;7.85;;;;;;;;;;10430638;28;20106;-83
2023/09/13 11:42:51;;;;;;;11.82;9.10;;;;;;;;;;10439487;28;20031;-84
2023/09/13 11:47:52;;;;;;;11.52;8.82;;;;;;;;;;10445856;28;20040;-83
2023/09/13 11:53:14;;;;;;;14.90;8.85;;;;;;;;;;10445482;28;20025;-80
2023/09/13 11:58:16;;;;;;;11.52;8.90;;;;;;;;;;10441843;28;20117;-83
2023/09/13 12:03:17;;;;;;;13.00;8.80;;;;;;;;;;10437632;28;20115;-83
2023/09/13 12:08:29;;;;;;;11.07;8.85;;;;;;;;;;10444843;28;20028;-84
2023/09/13 12:13:45;;;;;;;11.85;8.98;;;;;;;;;;10430279;28;20496;-82
2023/09/13 12:18:46;;;;;;;13.77;8.25;;;;;;;;;;10441978;28;20364;-86
2023/09/13 12:23:47;;;;;;;12.07;8.25;;;;;;;;;;10443713;28;20537;-80
2023/09/13 12:28:49;;;;;;;14.18;8.20;;;;;;;;;;10443566;28;20021;-81
2023/09/13 12:34:01;;;;;;;12.32;7.13;;;;;;;;;;10443073;28;20029;-79
2023/09/13 12:39:21;;;;;;;11.55;8.30;;;;;;;;;;10441672;28;20139;-83
2023/09/13 12:44:22;;;;;;;9.25;7.22;;;;;;;;;;10438224;28;20048;-82
2023/09/13 12:49:24;;;;;;;7.47;6.70;;;;;;;;;;10442112;28;20392;-81
2023/09/13 12:54:25;;;;;;;11.00;7.60;;;;;;;;;;10441988;28;20117;-82
2023/09/13 12:59:26;;;;;;;9.27;7.85;;;;;;;;;;10441379;28;20037;-82
2023/09/13 13:04:30;;;;;;;9.68;7.57;;;;;;;;;;10435779;28;20033;-81
2023/09/13 13:09:31;;;;;;;10.05;7.55;;;;;;;;;;10443508;28;20039;-82
2023/09/13 13:14:32;;;;;;;12.43;8.07;;;;;;;;;;10431483;28;20428;-85
2023/09/13 13:19:35;;;;;;;8.70;7.03;;;;;;;;;;10442417;28;20445;-80
2023/09/13 13:24:36;;;;;;;8.88;7.88;;;;;;;;;;10443000;28;20053;-81
2023/09/13 13:29:38;;;;;;;9.35;7.90;;;;;;;;;;10441747;28;20056;-81
2023/09/13 13:34:39;;;;;;;10.55;8.05;;;;;;;;;;10441012;28;20040;-83
2023/09/13 13:39:40;;;;;;;12.02;7.90;;;;;;;;;;10442193;28;20041;-83
2023/09/13 13:44:41;;;;;;;9.50;7.55;;;;;;;;;;10433583;28;20025;-82
2023/09/13 13:49:42;;;;;;;11.50;7.70;;;;;;;;;;10441164;28;20033;-81
2023/09/13 13:54:43;;;;;;;13.10;8.02;;;;;;;;;;10442531;28;20024;-82
2023/09/13 13:59:44;;;;;;;9.70;7.57;;;;;;;;;;10441601;28;20611;-84
2023/09/13 14:04:47;;;;;;;9.70;7.43;;;;;;;;;;10435302;28;20038;-83
2023/09/13 14:09:48;;;;;;;14.88;7.85;;;;;;;;;;10435282;28;20615;-84
2023/09/13 14:14:50;;;;;;;12.63;7.93;;;;;;;;;;10436177;28;20403;-83
2023/09/13 14:19:51;;;;;;;10.23;7.65;;;;;;;;;;10441890;28;20043;-87
2023/09/13 14:25:43;;;;;;;11.90;7.95;;;;;;;;;;10449964;28;20040;-83
2023/09/13 14:30:44;;;;;;;10.52;7.95;;;;;;;;;;10448786;28;20048;-84
2023/09/13 14:35:45;;;;;;;9.50;7.80;;;;;;;;;;10446122;28;20040;-83
2023/09/13 14:40:46;;;;;;;9.90;7.95;;;;;;;;;;10446702;28;20040;-82
2023/09/13 14:45:47;;;;;;;10.98;8.35;;;;;;;;;;10433940;28;20083;-81
2023/09/13 14:50:48;;;;;;;10.40;7.55;;;;;;;;;;10449092;28;20154;-83
2023/09/13 14:55:58;;;;;;;9.15;7.65;;;;;;;;;;10446180;28;20448;-83
2023/09/13 15:00:59;;;;;;;9.27;7.20;;;;;;;;;;10448345;28;20091;-82
2023/09/13 15:06:01;;;;;;;10.00;6.70;;;;;;;;;;10448313;28;20052;-82
2023/09/13 15:11:03;;;;;;;8.32;7.50;;;;;;;;;;10447936;28;20622;-82
2023/09/13 15:16:04;;;;;;;11.13;7.68;;;;;;;;;;10428070;28;20024;-82
2023/09/13 15:21:05;;;;;;;10.35;7.13;;;;;;;;;;10441198;28;20060;-82
2023/09/13 15:26:06;;;;;;;10.98;7.38;;;;;;;;;;10447522;28;21250;-86
2023/09/13 15:31:07;;;;;;;7.88;7.07;;;;;;;;;;10448545;28;20033;-84
2023/09/13 15:36:08;;;;;;;10.60;7.72;;;;;;;;;;10448232;28;20041;-83
2023/09/13 15:41:11;;;;;;;9.73;6.85;;;;;;;;;;10447226;28;20032;-82
2023/09/13 15:46:12;;;;;;;11.77;7.30;;;;;;;;;;10446968;28;20040;-86
2023/09/13 15:51:13;;;;;;;9.43;7.55;;;;;;;;;;10447570;28;20036;-82
2023/09/13 15:56:14;;;;;;;12.68;7.40;;;;;;;;;;10448040;28;20029;-83
2023/09/13 16:01:18;;;;;;;65.00;28.98;;;;;;;;;;10446947;28;20037;-83
2023/09/13 16:06:20;;;;;;;27.50;13.60;;;;;;;;;;10444358;28;20779;-82
2023/09/13 16:11:21;;;;;;;31.98;13.48;;;;;;;;;;10444881;28;20017;-82
2023/09/13 16:16:22;;;;;;;23.85;12.30;;;;;;;;;;10446132;28;20106;-82
2023/09/13 16:21:25;;;;;;;26.85;14.20;;;;;;;;;;10446019;28;20021;-82
2023/09/13 16:26:26;;;;;;;19.30;10.80;;;;;;;;;;10442416;28;20048;-82
2023/09/13 16:31:28;;;;;;;13.73;10.38;;;;;;;;;;10440938;28;20033;-82
2023/09/13 16:36:30;;;;;;;17.40;10.63;;;;;;;;;;10432615;28;20045;-84
2023/09/13 16:41:31;;;;;;;17.00;10.50;;;;;;;;;;10443496;28;20033;-82
2023/09/13 16:46:32;;;;;;;13.93;9.40;;;;;;;;;;10444411;28;20063;-83
2023/09/13 16:51:33;;;;;;;14.35;10.15;;;;;;;;;;10443496;28;20029;-83
2023/09/13 16:56:34;;;;;;;26.73;15.85;;;;;;;;;;10444094;28;20029;-83
2023/09/13 17:01:35;;;;;;;17.63;10.85;;;;;;;;;;10442181;28;20473;-84
2023/09/13 17:06:36;;;;;;;15.27;9.45;;;;;;;;;;10437356;28;20021;-83
2023/09/13 17:11:40;;;;;;;16.83;7.95;;;;;;;;;;10441412;28;20064;-82
2023/09/13 17:16:41;;;;;;;12.77;6.85;;;;;;;;;;10443181;28;20063;-82
2023/09/13 17:21:42;;;;;;;6.00;5.32;;;;;;;;;;10441850;28;20726;-85
2023/09/13 17:26:43;;;;;;;8.20;5.38;;;;;;;;;;10439229;28;20112;-85
2023/09/13 17:31:45;;;;;;;10.40;5.40;;;;;;;;;;10442649;28;20132;-83
2023/09/13 17:36:46;;;;;;;7.75;5.30;;;;;;;;;;10436970;28;20045;-83
2023/09/13 17:41:47;;;;;;;10.88;6.10;;;;;;;;;;10432980;28;20079;-86
2023/09/13 17:46:51;;;;;;;7.97;5.38;;;;;;;;;;10441490;28;20116;-81
2023/09/13 17:51:53;;;;;;;;;;;;;;;;;;10440340;28;20171;-84
2023/09/13 17:56:54;;;;;;;8.70;5.68;;;;;;;;;;10445324;28;19916;-84
2023/09/13 18:01:55;;;;;;;8.13;5.65;;;;;;;;;;10441926;28;20039;-83
2023/09/13 18:06:56;;;;;;;6.60;4.82;;;;;;;;;;10442726;28;20049;-83
2023/09/13 18:11:57;;;;;;;7.43;5.53;;;;;;;;;;10447108;28;20052;-85
2023/09/13 18:16:59;;;;;;;7.38;5.45;;;;;;;;;;10447336;28;20515;-83
2023/09/13 18:22:00;;;;;;;7.00;6.22;;;;;;;;;;10448276;28;20082;-85
2023/09/13 18:27:01;;;;;;;11.30;6.10;;;;;;;;;;10448967;28;20049;-83
2023/09/13 18:32:02;;;;;;;8.73;6.28;;;;;;;;;;10448538;28;20070;-86
2023/09/13 18:37:03;;;;;;;7.57;5.90;;;;;;;;;;10441308;28;20040;-83
2023/09/13 18:42:04;;;;;;;9.57;6.78;;;;;;;;;;10444946;28;20025;-83
2023/09/13 18:47:05;;;;;;;9.90;7.60;;;;;;;;;;10447439;28;20495;-85
2023/09/13 18:52:06;;;;;;;8.30;6.65;;;;;;;;;;10447729;28;20175;-82
2023/09/13 18:57:09;;;;;;;20.08;8.32;;;;;;;;;;10447859;28;20140;-89
2023/09/13 19:02:10;;;;;;;13.43;8.02;;;;;;;;;;10445526;28;20033;-85
2023/09/13 19:07:11;;;;;;;13.07;8.23;;;;;;;;;;10425094;28;20477;-87
2023/09/13 19:12:12;;;;;;;10.90;7.13;;;;;;;;;;10425214;28;20040;-83
2023/09/13 19:17:13;;;;;;;12.68;8.15;;;;;;;;;;10445981;28;20041;-81
2023/09/13 19:22:14;;;;;;;13.55;9.23;;;;;;;;;;10437888;28;20482;-83
2023/09/13 19:27:15;;;;;;;10.25;7.45;;;;;;;;;;10447179;28;20041;-85
2023/09/13 19:32:16;;;;;;;11.80;8.25;;;;;;;;;;10445562;28;20408;-83
2023/09/13 19:37:17;;;;;;;11.25;7.68;;;;;;;;;;10446456;28;20029;-83
2023/09/13 19:42:18;;;;;;;17.98;10.07;;;;;;;;;;10445451;28;20461;-85
2023/09/13 19:47:19;;;;;;;11.57;8.20;;;;;;;;;;10445158;28;20060;-84
2023/09/13 19:52:21;;;;;;;11.32;8.80;;;;;;;;;;10442280;28;21133;-83
2023/09/13 19:57:22;;;;;;;14.98;8.77;;;;;;;;;;10444642;28;20041;-84
2023/09/13 20:02:23;;;;;;;14.73;10.18;;;;;;;;;;10443635;28;20052;-84
2023/09/13 20:07:24;;;;;;;17.63;11.90;;;;;;;;;;10444083;28;20496;-85
2023/09/13 20:12:28;;;;;;;19.98;12.77;;;;;;;;;;10445042;28;20025;-85
2023/09/13 20:17:29;;;;;;;20.60;14.43;;;;;;;;;;10443259;28;20041;-87
2023/09/13 20:22:30;;;;;;;19.83;13.60;;;;;;;;;;10442326;28;20071;-85
2023/09/13 20:27:32;;;;;;;25.52;15.93;;;;;;;;;;10442138;28;20037;-84
2023/09/13 20:32:33;;;;;;;23.10;15.20;;;;;;;;;;10442087;28;20652;-86
2023/09/13 20:37:34;;;;;;;33.78;17.42;;;;;;;;;;10442588;28;20041;-84
2023/09/13 20:42:35;;;;;;;23.42;17.50;;;;;;;;;;10443158;28;20029;-83
2023/09/13 20:47:36;;;;;;;23.77;16.70;;;;;;;;;;10443343;28;20029;-84
2023/09/13 20:52:37;;;;;;;23.98;17.40;;;;;;;;;;10443450;28;20036;-84
2023/09/13 20:57:38;;;;;;;23.60;17.25;;;;;;;;;;10442673;28;20048;-85
2023/09/13 21:02:39;;;;;;;27.98;20.83;;;;;;;;;;10443019;28;20090;-84
2023/09/13 21:07:40;;;;;;;24.60;18.60;;;;;;;;;;10442750;28;20588;-85
2023/09/13 21:12:42;;;;;;;29.25;20.00;;;;;;;;;;10443785;28;20033;-84
2023/09/13 21:17:43;;;;;;;30.27;20.67;;;;;;;;;;10442183;28;20408;-87
2023/09/13 21:22:44;;;;;;;29.38;20.33;;;;;;;;;;10445149;28;20135;-84
2023/09/13 21:27:45;;;;;;;27.45;20.13;;;;;;;;;;10437958;28;20491;-85
2023/09/13 21:32:48;;;;;;;27.70;19.58;;;;;;;;;;10450725;28;20393;-84
2023/09/13 21:37:49;;;;;;;37.88;21.98;;;;;;;;;;10449775;28;20040;-84
2023/09/13 21:42:51;;;;;;;31.92;21.23;;;;;;;;;;10450291;28;20465;-84
2023/09/13 21:47:57;;;;;;;28.27;20.17;;;;;;;;;;10450262;28;20493;-84
2023/09/13 21:52:58;;;;;;;28.08;20.02;;;;;;;;;;10449964;28;20036;-85
2023/09/13 21:57:59;;;;;;;30.90;19.50;;;;;;;;;;10448726;28;20055;-87
2023/09/13 22:03:00;;;;;;;28.88;20.65;;;;;;;;;;10450008;28;20067;-85
2023/09/13 22:08:01;;;;;;;29.13;21.33;;;;;;;;;;10449741;28;20036;-84
2023/09/13 22:13:02;;;;;;;28.70;20.52;;;;;;;;;;10440489;28;20056;-84
2023/09/13 22:18:04;;;;;;;34.03;23.38;;;;;;;;;;10448646;28;20060;-84
2023/09/13 22:23:05;;;;;;;29.10;20.38;;;;;;;;;;10449516;28;20048;-84
2023/09/13 22:28:06;;;;;;;29.05;20.88;;;;;;;;;;10447880;28;20392;-84
2023/09/13 22:33:08;;;;;;;32.05;22.80;;;;;;;;;;10448857;28;20032;-84
2023/09/13 22:38:09;;;;;;;30.23;22.20;;;;;;;;;;10448616;28;20453;-84
2023/09/13 22:43:10;;;;;;;31.25;22.30;;;;;;;;;;10447707;28;20028;-84
2023/09/13 22:48:11;;;;;;;25.80;17.95;;;;;;;;;;10447931;28;20033;-86
2023/09/13 22:53:12;;;;;;;24.25;17.23;;;;;;;;;;10447618;28;20044;-84
2023/09/13 22:58:13;;;;;;;22.27;16.00;;;;;;;;;;10448622;28;20036;-84
2023/09/13 23:03:15;;;;;;;21.67;14.15;;;;;;;;;;10446935;28;20468;-86
2023/09/13 23:08:16;;;;;;;18.13;12.43;;;;;;;;;;10439969;28;20029;-85
2023/09/13 23:13:17;;;;;;;11.07;7.65;;;;;;;;;;10447507;28;20083;-84
2023/09/13 23:18:19;;;;;;;6.07;4.13;;;;;;;;;;10446158;28;20048;-86
2023/09/13 23:23:21;;;;;;;6.90;4.88;;;;;;;;;;10447417;28;20049;-86
2023/09/13 23:28:22;;;;;;;7.97;5.07;;;;;;;;;;10447150;28;20037;-83
2023/09/13 23:33:23;;;;;;;7.40;4.22;;;;;;;;;;10446096;28;20036;-84
2023/09/13 23:38:24;;;;;;;6.55;3.72;;;;;;;;;;10446727;28;20485;-84
2023/09/13 23:43:25;;;;;;;6.80;3.28;;;;;;;;;;10446927;28;20647;-85
2023/09/13 23:48:26;;;;;;;5.45;3.35;;;;;;;;;;10444082;28;20079;-84
2023/09/13 23:53:27;;;;;;;5.97;3.70;;;;;;;;;;10444591;28;20114;-84
2023/09/13 23:58:28;;;;;;;4.88;3.45;;;;;;;;;;10445427;28;20041;-84
